Time;durP1;ratioP1;P1;durP2;ratioP2;P2;SDS_P1;SDS_P2;PMS_P1;PMS_P2;Temp;Humidity;BMP_temperature;BMP_pressure;BME280_temperature;BME280_humidity;BME280_pressure;Samples;Min_cycle;Max_cycle;Signal;HPM_P1;HPM_P2
2022/10/20 00:01:19;;;;;;;13.05;7.30;;;7.40;99.90;;;;;;5158477;27;20042;-51
2022/10/20 00:03:46;;;;;;;11.50;6.85;;;7.30;99.90;;;;;;5158975;27;20046;-45
2022/10/20 00:06:13;;;;;;;14.65;6.72;;;7.30;99.90;;;;;;5158889;27;20117;-55
2022/10/20 00:08:40;;;;;;;8.30;6.25;;;7.30;99.90;;;;;;5159024;27;20046;-44
2022/10/20 00:11:07;;;;;;;8.15;5.90;;;7.30;99.90;;;;;;5158372;27;20568;-52
2022/10/20 00:13:34;;;;;;;12.18;6.45;;;7.20;99.90;;;;;;5139516;27;20069;-52
2022/10/20 00:16:00;;;;;;;11.98;7.82;;;7.30;99.90;;;;;;5157653;27;20495;-42
2022/10/20 00:18:27;;;;;;;12.63;6.57;;;7.20;99.90;;;;;;5139966;27;20906;-48
2022/10/20 00:20:54;;;;;;;11.68;6.53;;;7.20;99.90;;;;;;5147966;27;20046;-54
2022/10/20 00:23:20;;;;;;;11.70;7.18;;;7.20;99.90;;;;;;5157624;27;20049;-49
2022/10/20 00:25:45;;;;;;;10.55;6.20;;;7.20;99.90;;;;;;5158150;27;20054;-43
2022/10/20 00:28:11;;;;;;;11.43;6.60;;;7.20;99.90;;;;;;5157891;27;20447;-49
2022/10/20 00:30:37;;;;;;;11.50;6.88;;;7.20;99.90;;;;;;5147135;27;20053;-55
2022/10/20 00:33:04;;;;;;;13.43;7.47;;;7.10;99.90;;;;;;5114816;27;20544;-48
2022/10/20 00:35:30;;;;;;;13.20;6.97;;;7.10;99.90;;;;;;5150330;27;20045;-54
2022/10/20 00:37:56;;;;;;;13.40;6.95;;;7.20;99.90;;;;;;5158425;27;20435;-43
2022/10/20 00:40:23;;;;;;;10.07;6.30;;;7.10;99.90;;;;;;5157407;27;20088;-46
2022/10/20 00:42:49;;;;;;;11.52;7.25;;;7.10;99.90;;;;;;5134433;27;20531;-51
2022/10/20 00:45:17;;;;;;;14.45;6.45;;;7.10;99.90;;;;;;5143579;27;20045;-49
2022/10/20 00:47:45;;;;;;;15.70;8.43;;;7.10;99.90;;;;;;5155685;27;20474;-44
2022/10/20 00:50:32;;;;;;;20.77;9.43;;;7.00;99.90;;;;;;5146167;27;20072;-47
2022/10/20 00:53:00;;;;;;;13.45;8.13;;;7.00;99.90;;;;;;5149590;27;20046;-48
2022/10/20 00:55:29;;;;;;;13.98;9.43;;;7.00;99.90;;;;;;5133601;27;20042;-48
2022/10/20 00:57:58;;;;;;;13.48;6.68;;;7.00;99.90;;;;;;5136952;27;20053;-52
2022/10/20 01:00:24;;;;;;;11.65;6.72;;;7.00;99.90;;;;;;5152388;27;20068;-54
2022/10/20 01:02:52;;;;;;;12.55;6.57;;;7.00;99.90;;;;;;5157856;27;20069;-52
2022/10/20 01:05:18;;;;;;;15.38;7.13;;;7.00;99.90;;;;;;5157124;27;20069;-43
2022/10/20 01:07:44;;;;;;;11.25;6.70;;;7.00;99.90;;;;;;5138859;27;20049;-53
2022/10/20 01:10:10;;;;;;;12.50;7.63;;;7.00;99.90;;;;;;5150545;27;20138;-45
2022/10/20 01:12:45;;;;;;;10.40;6.05;;;7.00;99.90;;;;;;5149999;27;20053;-57
2022/10/20 01:15:26;;;;;;;12.23;6.97;;;6.90;99.90;;;;;;5157513;27;20101;-48
2022/10/20 01:18:08;;;;;;;11.02;7.00;;;6.90;99.90;;;;;;5157115;27;20046;-46
2022/10/20 01:20:59;;;;;;;10.45;6.82;;;6.90;99.90;;;;;;5157551;27;20049;-53
2022/10/20 01:24:06;;;;;;;10.48;6.25;;;6.80;99.90;;;;;;5157671;27;20117;-52
2022/10/20 01:26:58;;;;;;;9.45;6.90;;;6.90;99.90;;;;;;5157148;27;20060;-45
2022/10/20 01:29:38;;;;;;;13.40;6.72;;;6.80;99.90;;;;;;5157763;27;20560;-45
2022/10/20 01:32:24;;;;;;;8.23;6.53;;;6.90;99.90;;;;;;5138949;27;20061;-56
2022/10/20 01:35:23;;;;;;;12.02;7.60;;;6.80;99.90;;;;;;5156926;27;20503;-53
2022/10/20 01:38:06;;;;;;;10.60;6.57;;;6.80;99.90;;;;;;5135044;27;20662;-45
2022/10/20 01:41:20;;;;;;;10.95;6.50;;;6.80;99.90;;;;;;5156681;27;20072;-44
2022/10/20 01:43:48;;;;;;;12.55;6.63;;;6.80;99.90;;;;;;5050775;28;20163;-54
2022/10/20 01:46:16;;;;;;;11.50;6.30;;;6.70;99.90;;;;;;5051496;28;20060;-41
2022/10/20 01:48:42;;;;;;;12.55;6.82;;;6.80;99.90;;;;;;5037488;28;20045;-52
2022/10/20 01:51:08;;;;;;;10.18;6.45;;;6.70;99.90;;;;;;5050805;28;20051;-43
2022/10/20 01:53:35;;;;;;;11.85;6.72;;;6.70;99.90;;;;;;5034483;28;20063;-51
2022/10/20 01:56:02;;;;;;;10.25;5.95;;;6.70;99.90;;;;;;5042194;28;20049;-52
2022/10/20 01:58:27;;;;;;;10.77;6.05;;;6.70;99.90;;;;;;5038473;28;20109;-46
2022/10/20 02:00:57;;;;;;;9.55;5.68;;;6.70;99.90;;;;;;5038134;28;20406;-45
2022/10/20 02:03:41;;;;;;;8.95;6.25;;;6.70;99.90;;;;;;5034045;28;20071;-52
2022/10/20 02:06:36;;;;;;;8.93;6.18;;;6.70;99.90;;;;;;5031114;28;20409;-48
2022/10/20 02:09:11;;;;;;;11.57;6.55;;;6.70;99.90;;;;;;4976004;28;20065;-45
2022/10/20 02:11:48;;;;;;;8.80;6.10;;;6.70;99.90;;;;;;4990996;28;20104;-59
2022/10/20 02:14:16;;;;;;;7.95;6.00;;;6.60;99.90;;;;;;4991153;28;20129;-47
2022/10/20 02:16:48;;;;;;;9.10;6.32;;;6.60;99.90;;;;;;4974863;28;20128;-55
2022/10/20 02:19:17;;;;;;;11.27;5.17;;;6.70;99.90;;;;;;5022559;28;20119;-51
2022/10/20 02:21:44;;;;;;;10.32;5.93;;;6.60;99.90;;;;;;5032547;28;20420;-50
2022/10/20 02:24:13;;;;;;;10.73;6.57;;;6.60;99.90;;;;;;5043435;28;20049;-46
2022/10/20 02:26:39;;;;;;;9.07;6.28;;;6.70;99.90;;;;;;5051316;28;20424;-48
2022/10/20 02:29:17;;;;;;;10.43;6.18;;;6.70;99.90;;;;;;5051496;28;20129;-43
2022/10/20 02:31:43;;;;;;;9.85;6.00;;;6.60;99.90;;;;;;5070140;28;20063;-55
2022/10/20 02:34:09;;;;;;;13.32;6.57;;;6.60;99.90;;;;;;5053252;28;20056;-44
2022/10/20 02:36:40;;;;;;;12.27;6.03;;;6.60;99.90;;;;;;5071184;28;20048;-51
2022/10/20 02:39:06;;;;;;;10.20;6.88;;;6.60;99.90;;;;;;5071117;28;20067;-51
2022/10/20 02:41:32;;;;;;;11.07;6.47;;;6.50;99.90;;;;;;5070792;28;20470;-49
2022/10/20 02:43:58;;;;;;;10.80;7.13;;;6.50;99.90;;;;;;5066819;28;20071;-44
2022/10/20 02:46:23;;;;;;;13.30;6.70;;;6.50;99.90;;;;;;5113811;27;20056;-54
2022/10/20 02:48:49;;;;;;;11.57;6.60;;;6.50;99.90;;;;;;5152140;27;20104;-48
2022/10/20 02:51:16;;;;;;;10.40;6.50;;;6.50;99.90;;;;;;5144490;27;20053;-41
2022/10/20 02:53:43;;;;;;;11.25;6.57;;;6.50;99.90;;;;;;5142030;27;20054;-55
2022/10/20 02:56:09;;;;;;;10.43;6.47;;;6.40;99.90;;;;;;5156973;27;20046;-46
2022/10/20 02:58:34;;;;;;;11.52;6.60;;;6.40;99.90;;;;;;5153133;27;20053;-48
2022/10/20 03:01:00;;;;;;;11.93;6.68;;;6.40;99.90;;;;;;5145697;27;20060;-41
2022/10/20 03:03:26;;;;;;;12.15;7.25;;;6.40;99.90;;;;;;5153149;27;20523;-52
2022/10/20 03:05:51;;;;;;;8.27;6.72;;;6.40;99.90;;;;;;5145643;27;20125;-55
2022/10/20 03:08:17;;;;;;;12.45;6.35;;;6.40;99.90;;;;;;5156252;27;20046;-43
2022/10/20 03:10:43;;;;;;;8.38;6.95;;;6.40;99.90;;;;;;5156001;27;20492;-48
2022/10/20 03:13:09;;;;;;;8.45;5.85;;;6.40;99.90;;;;;;5156213;27;20046;-45
2022/10/20 03:15:36;;;;;;;10.57;6.65;;;6.40;99.90;;;;;;5155763;27;20034;-42
2022/10/20 03:18:01;;;;;;;11.40;6.43;;;6.40;99.90;;;;;;5159314;27;20526;-49
2022/10/20 03:20:27;;;;;;;9.73;6.90;;;6.30;99.90;;;;;;5148380;27;20045;-47
2022/10/20 03:22:53;;;;;;;8.73;7.07;;;6.30;99.90;;;;;;5138191;27;20061;-48
2022/10/20 03:25:18;;;;;;;12.18;7.47;;;6.30;99.90;;;;;;5129273;27;20433;-49
2022/10/20 03:27:44;;;;;;;11.23;7.47;;;6.30;99.90;;;;;;5159620;27;20053;-48
2022/10/20 03:30:10;;;;;;;10.75;7.20;;;6.30;99.90;;;;;;5159131;27;20042;-44
2022/10/20 03:32:36;;;;;;;16.40;6.55;;;6.30;99.90;;;;;;5159764;27;20046;-53
2022/10/20 03:35:01;;;;;;;9.98;6.97;;;6.20;99.90;;;;;;5140446;27;20042;-48
2022/10/20 03:37:27;;;;;;;10.27;7.43;;;6.20;99.90;;;;;;5156181;27;20518;-53
2022/10/20 03:39:52;;;;;;;9.82;7.32;;;6.20;99.90;;;;;;5148342;27;20046;-58
2022/10/20 03:42:18;;;;;;;14.07;7.90;;;6.20;99.90;;;;;;5159092;27;20049;-44
2022/10/20 03:44:44;;;;;;;11.80;6.65;;;6.20;99.90;;;;;;5129455;27;20050;-50
2022/10/20 03:47:11;;;;;;;13.20;7.85;;;6.20;99.90;;;;;;5142947;27;20053;-41
2022/10/20 03:49:37;;;;;;;11.65;7.40;;;6.20;99.90;;;;;;5158696;27;20504;-51
2022/10/20 03:52:03;;;;;;;16.08;8.23;;;6.20;99.90;;;;;;5159387;27;20050;-49
2022/10/20 03:54:29;;;;;;;17.08;7.70;;;6.20;99.90;;;;;;5159012;27;20046;-45
2022/10/20 03:56:55;;;;;;;12.52;7.85;;;6.20;99.90;;;;;;5144419;27;20050;-46
2022/10/20 03:59:20;;;;;;;10.77;7.68;;;6.20;99.90;;;;;;5158182;27;20395;-41
2022/10/20 04:01:47;;;;;;;9.32;7.75;;;6.20;99.90;;;;;;5158312;27;20279;-57
2022/10/20 04:04:13;;;;;;;8.63;7.38;;;6.20;99.90;;;;;;5157329;27;20088;-52
2022/10/20 04:06:38;;;;;;;11.02;8.10;;;6.20;99.90;;;;;;5157791;27;20145;-44
2022/10/20 04:09:04;;;;;;;9.88;8.00;;;6.20;99.90;;;;;;5158994;27;20046;-49
2022/10/20 04:11:31;;;;;;;13.43;8.15;;;6.20;99.90;;;;;;5139480;27;20042;-49
2022/10/20 04:13:57;;;;;;;10.18;8.68;;;6.20;99.90;;;;;;5139358;27;20042;-51
2022/10/20 04:16:23;;;;;;;13.05;8.93;;;6.20;99.90;;;;;;5139821;27;20039;-43
2022/10/20 04:18:50;;;;;;;12.68;8.73;;;6.20;99.90;;;;;;5158404;27;20043;-53
2022/10/20 04:21:15;;;;;;;15.27;8.20;;;6.20;99.90;;;;;;5157873;27;20054;-45
2022/10/20 04:23:41;;;;;;;11.52;9.13;;;6.20;99.90;;;;;;5158609;27;20472;-52
2022/10/20 04:26:11;;;;;;;10.50;8.20;;;6.20;99.90;;;;;;5158999;27;20097;-57
2022/10/20 04:28:37;;;;;;;11.20;9.15;;;6.20;99.90;;;;;;5147376;27;20051;-56
2022/10/20 04:31:04;;;;;;;13.88;9.75;;;6.20;99.90;;;;;;5151021;27;20055;-48
2022/10/20 04:33:30;;;;;;;15.40;9.18;;;6.20;99.90;;;;;;5147504;27;20046;-55
2022/10/20 04:36:07;;;;;;;13.35;9.32;;;6.20;99.90;;;;;;5144139;27;20042;-46
2022/10/20 04:38:34;;;;;;;15.43;9.93;;;6.20;99.90;;;;;;5158937;27;20598;-44
2022/10/20 04:41:03;;;;;;;17.63;9.23;;;6.20;99.90;;;;;;5157485;27;20484;-50
2022/10/20 04:43:29;;;;;;;13.48;9.88;;;6.20;99.90;;;;;;5158017;27;20153;-55
2022/10/20 04:46:02;;;;;;;17.55;9.10;;;6.20;99.90;;;;;;5157471;27;20089;-52
2022/10/20 04:48:27;;;;;;;13.00;9.77;;;6.20;99.90;;;;;;5139337;27;20099;-53
2022/10/20 04:51:05;;;;;;;15.38;10.52;;;6.20;99.90;;;;;;5157256;27;20042;-52
2022/10/20 04:53:31;;;;;;;12.48;9.43;;;6.20;99.90;;;;;;5138648;27;20423;-43
2022/10/20 04:55:57;;;;;;;12.27;9.82;;;6.20;99.90;;;;;;5148348;27;20155;-45
2022/10/20 04:58:24;;;;;;;13.38;10.50;;;6.20;99.90;;;;;;5152705;27;20160;-54
2022/10/20 05:00:49;;;;;;;19.55;10.70;;;6.20;99.90;;;;;;5138728;27;20060;-56
2022/10/20 05:03:15;;;;;;;12.48;9.98;;;6.20;99.90;;;;;;5157614;27;20046;-43
2022/10/20 05:05:41;;;;;;;12.85;10.60;;;6.20;99.90;;;;;;5157676;27;20133;-54
2022/10/20 05:08:06;;;;;;;11.75;10.27;;;6.20;99.90;;;;;;5157671;27;20522;-55
2022/10/20 05:10:32;;;;;;;16.13;10.98;;;6.20;99.90;;;;;;5157085;27;20147;-55
2022/10/20 05:12:58;;;;;;;13.45;12.02;;;6.30;99.90;;;;;;5138839;27;20116;-46
2022/10/20 05:15:23;;;;;;;16.40;11.50;;;6.30;99.90;;;;;;5147664;27;20043;-53
2022/10/20 05:17:49;;;;;;;16.75;12.52;;;6.30;99.90;;;;;;5151523;27;20076;-49
2022/10/20 05:20:14;;;;;;;12.88;11.32;;;6.30;99.90;;;;;;5157008;27;20041;-44
2022/10/20 05:22:40;;;;;;;15.38;11.52;;;6.30;99.90;;;;;;5143647;27;20151;-48
2022/10/20 05:25:06;;;;;;;13.25;11.82;;;6.30;99.90;;;;;;5157294;27;20288;-48
2022/10/20 05:27:32;;;;;;;16.27;11.30;;;6.30;99.90;;;;;;5158324;27;20441;-52
2022/10/20 05:29:57;;;;;;;14.50;11.15;;;6.30;99.90;;;;;;5157712;27;20120;-54
2022/10/20 05:32:23;;;;;;;16.35;12.00;;;6.40;99.90;;;;;;5157313;27;20085;-46
2022/10/20 05:34:49;;;;;;;13.48;11.70;;;6.30;99.90;;;;;;5156911;27;20072;-48
2022/10/20 05:37:14;;;;;;;14.18;12.27;;;6.30;99.90;;;;;;5156613;27;20042;-50
2022/10/20 05:39:41;;;;;;;14.40;12.05;;;6.30;99.90;;;;;;5130230;27;20054;-43
2022/10/20 05:42:06;;;;;;;16.52;12.18;;;6.40;99.90;;;;;;5151470;27;20198;-53
2022/10/20 05:44:32;;;;;;;15.70;11.68;;;6.30;99.90;;;;;;5157107;27;20046;-47
2022/10/20 05:46:58;;;;;;;15.68;12.45;;;6.30;99.90;;;;;;5137820;27;20058;-53
2022/10/20 05:49:23;;;;;;;16.80;13.75;;;6.40;99.90;;;;;;5156320;27;20045;-53
2022/10/20 05:51:49;;;;;;;17.52;14.02;;;6.40;99.90;;;;;;5137388;27;20050;-49
2022/10/20 05:54:15;;;;;;;15.05;12.68;;;6.40;99.90;;;;;;5156342;27;20057;-43
2022/10/20 05:56:41;;;;;;;16.73;13.30;;;6.40;99.90;;;;;;5156704;27;20117;-41
2022/10/20 05:59:10;;;;;;;16.25;12.23;;;6.40;99.90;;;;;;5137587;27;20046;-51
2022/10/20 06:01:46;;;;;;;15.70;12.90;;;6.40;99.90;;;;;;5156747;27;20050;-41
2022/10/20 06:04:13;;;;;;;15.75;13.32;;;6.50;99.90;;;;;;5157052;27;20038;-54
2022/10/20 06:06:39;;;;;;;18.27;13.75;;;6.50;99.90;;;;;;5137825;27;20049;-46
2022/10/20 06:09:07;;;;;;;14.98;13.30;;;6.50;99.90;;;;;;5156357;27;20042;-49
2022/10/20 06:11:33;;;;;;;16.60;13.48;;;6.40;99.90;;;;;;5157115;27;20046;-60
2022/10/20 06:13:59;;;;;;;16.27;13.32;;;6.40;99.90;;;;;;5156949;27;20050;-53
2022/10/20 06:16:26;;;;;;;17.42;14.10;;;6.40;99.90;;;;;;5138125;27;20047;-43
2022/10/20 06:18:52;;;;;;;17.73;14.55;;;6.50;99.90;;;;;;5156268;27;20038;-48
2022/10/20 06:21:20;;;;;;;17.30;13.93;;;6.40;99.90;;;;;;5137313;27;20088;-58
2022/10/20 06:23:46;;;;;;;15.80;14.10;;;6.50;99.90;;;;;;5155771;27;20038;-46
2022/10/20 06:26:18;;;;;;;20.60;14.20;;;6.50;99.90;;;;;;5143217;27;20084;-49
2022/10/20 06:28:46;;;;;;;15.25;13.02;;;6.50;99.90;;;;;;5157037;27;20046;-54
2022/10/20 06:31:17;;;;;;;16.25;13.27;;;6.50;99.90;;;;;;5156286;27;20046;-53
2022/10/20 06:33:43;;;;;;;16.33;14.02;;;6.50;99.90;;;;;;5156124;27;20053;-56
2022/10/20 06:36:10;;;;;;;17.95;15.15;;;6.60;99.90;;;;;;5157013;27;20056;-49
2022/10/20 06:38:36;;;;;;;19.25;14.32;;;6.60;99.90;;;;;;5157261;27;20038;-43
2022/10/20 06:41:03;;;;;;;19.63;13.73;;;6.60;99.90;;;;;;5119657;27;20046;-44
2022/10/20 06:43:29;;;;;;;16.40;13.73;;;6.70;99.90;;;;;;5155290;27;20050;-54
2022/10/20 06:45:59;;;;;;;16.92;14.85;;;6.70;99.90;;;;;;5141628;27;20049;-50
2022/10/20 06:48:26;;;;;;;16.77;15.05;;;6.70;99.90;;;;;;5155010;27;20050;-44
2022/10/20 06:51:05;;;;;;;17.13;14.55;;;6.70;99.90;;;;;;5141011;27;20377;-42
2022/10/20 06:53:32;;;;;;;18.17;14.27;;;6.70;99.90;;;;;;5140593;27;20042;-46
2022/10/20 06:56:03;;;;;;;22.17;15.07;;;6.70;99.90;;;;;;5160409;27;20206;-47
2022/10/20 06:58:29;;;;;;;20.95;15.00;;;6.80;99.90;;;;;;5160018;27;20122;-51
2022/10/20 07:01:03;;;;;;;16.83;14.85;;;6.80;99.90;;;;;;5158810;27;20054;-53
2022/10/20 07:03:30;;;;;;;17.23;14.65;;;6.80;99.90;;;;;;5159372;27;20062;-52
2022/10/20 07:05:56;;;;;;;15.90;14.27;;;6.80;99.90;;;;;;5160216;27;20080;-48
2022/10/20 07:08:23;;;;;;;17.67;13.57;;;6.80;99.90;;;;;;5159402;27;20042;-50
2022/10/20 07:11:06;;;;;;;19.90;15.57;;;6.80;99.90;;;;;;5144164;27;20155;-49
2022/10/20 07:13:34;;;;;;;17.75;14.43;;;6.80;99.90;;;;;;5138000;27;20042;-40
2022/10/20 07:16:00;;;;;;;18.38;15.90;;;6.90;99.90;;;;;;5153246;27;20495;-53
2022/10/20 07:18:27;;;;;;;18.05;15.10;;;6.90;99.90;;;;;;5131238;27;20445;-41
2022/10/20 07:21:01;;;;;;;19.10;15.13;;;6.90;99.90;;;;;;5144886;27;20038;-53
2022/10/20 07:23:29;;;;;;;17.90;15.93;;;6.90;99.90;;;;;;5152604;27;20057;-40
2022/10/20 07:26:03;;;;;;;18.20;14.77;;;6.90;99.90;;;;;;5130887;27;20050;-46
2022/10/20 07:28:29;;;;;;;18.40;15.13;;;7.00;99.90;;;;;;5154051;27;20045;-54
2022/10/20 07:30:55;;;;;;;18.73;15.55;;;7.00;99.90;;;;;;5138905;27;20277;-49
2022/10/20 07:33:21;;;;;;;16.85;15.10;;;7.10;99.90;;;;;;5156702;27;20069;-43
2022/10/20 07:35:48;;;;;;;17.65;15.90;;;7.10;99.90;;;;;;5158604;27;20072;-41
2022/10/20 07:38:13;;;;;;;17.70;15.85;;;7.20;99.90;;;;;;5140104;27;20076;-51
2022/10/20 07:40:39;;;;;;;20.98;15.95;;;7.20;99.90;;;;;;5126181;27;20077;-53
2022/10/20 07:43:05;;;;;;;17.10;15.40;;;7.30;99.90;;;;;;5158734;27;20459;-52
2022/10/20 07:45:31;;;;;;;17.10;15.25;;;7.40;99.90;;;;;;5158503;27;20125;-47
2022/10/20 07:47:58;;;;;;;20.17;16.17;;;7.50;99.90;;;;;;5159297;27;20041;-46
2022/10/20 07:50:24;;;;;;;18.83;15.35;;;7.60;99.90;;;;;;5144685;27;20491;-48
2022/10/20 07:52:51;;;;;;;18.50;14.77;;;7.60;99.90;;;;;;5148585;27;20522;-52
2022/10/20 07:55:17;;;;;;;20.48;16.42;;;7.60;99.90;;;;;;5152968;27;20034;-41
2022/10/20 07:57:43;;;;;;;17.33;14.82;;;7.70;99.90;;;;;;5139074;27;20698;-49
2022/10/20 08:00:09;;;;;;;19.08;16.15;;;7.80;99.90;;;;;;5145391;27;20489;-47
2022/10/20 08:02:35;;;;;;;19.20;15.75;;;7.80;99.90;;;;;;5154711;27;20117;-52
2022/10/20 08:05:01;;;;;;;17.50;15.65;;;7.90;99.90;;;;;;5150884;27;20709;-51
2022/10/20 08:07:26;;;;;;;20.55;16.13;;;7.90;99.90;;;;;;5155118;27;20485;-49
2022/10/20 08:09:52;;;;;;;19.05;15.05;;;8.00;99.90;;;;;;5152907;27;20097;-43
2022/10/20 08:12:18;;;;;;;20.50;15.40;;;8.00;99.90;;;;;;5142173;27;20568;-48
2022/10/20 08:14:43;;;;;;;18.42;15.70;;;8.10;99.90;;;;;;5147065;27;20069;-55
2022/10/20 08:17:09;;;;;;;16.42;14.82;;;8.10;99.90;;;;;;5154933;27;20034;-43
2022/10/20 08:19:35;;;;;;;16.15;14.52;;;8.20;99.90;;;;;;5154055;27;20452;-55
2022/10/20 08:22:01;;;;;;;16.10;14.50;;;8.30;99.90;;;;;;5130903;27;20138;-49
2022/10/20 08:24:26;;;;;;;15.82;14.00;;;8.40;99.90;;;;;;5151121;27;20050;-47
2022/10/20 08:26:52;;;;;;;15.95;13.63;;;8.50;99.90;;;;;;5149570;27;20409;-49
2022/10/20 08:29:17;;;;;;;16.33;14.13;;;8.50;99.90;;;;;;5136643;27;20050;-51
2022/10/20 08:31:44;;;;;;;16.85;14.38;;;8.60;99.90;;;;;;5157458;27;20054;-52
2022/10/20 08:34:09;;;;;;;18.15;14.90;;;8.70;99.90;;;;;;5146275;27;20041;-49
2022/10/20 08:36:38;;;;;;;15.70;13.32;;;8.80;99.90;;;;;;5158029;27;20038;-59
2022/10/20 08:39:04;;;;;;;16.17;14.48;;;8.90;99.90;;;;;;5155583;27;20054;-47
2022/10/20 08:41:35;;;;;;;15.65;13.10;;;9.00;99.90;;;;;;5157909;27;20109;-55
2022/10/20 08:44:04;;;;;;;17.58;13.52;;;9.00;99.90;;;;;;5138818;27;20340;-49
2022/10/20 08:46:34;;;;;;;15.68;13.25;;;9.10;99.90;;;;;;5156166;27;20038;-57
2022/10/20 08:49:01;;;;;;;15.00;13.43;;;9.20;99.90;;;;;;5136825;27;20050;-51
2022/10/20 08:51:31;;;;;;;15.63;13.85;;;9.20;99.90;;;;;;5158139;27;20216;-46
2022/10/20 08:53:59;;;;;;;14.57;13.00;;;9.20;99.90;;;;;;5156704;27;20156;-46
2022/10/20 08:56:28;;;;;;;16.88;14.63;;;9.30;99.90;;;;;;5126580;27;20038;-48
2022/10/20 08:58:54;;;;;;;15.30;13.80;;;9.30;99.90;;;;;;5156087;27;20137;-51
2022/10/20 09:01:42;;;;;;;17.15;13.52;;;9.40;99.90;;;;;;5156886;27;20042;-50
2022/10/20 09:04:17;;;;;;;14.13;12.65;;;9.40;99.90;;;;;;5145196;27;20085;-43
2022/10/20 09:06:46;;;;;;;14.55;13.02;;;9.50;99.90;;;;;;5157671;27;20046;-48
2022/10/20 09:09:20;;;;;;;13.98;11.93;;;9.60;99.90;;;;;;5156543;27;20049;-48
2022/10/20 09:11:47;;;;;;;13.93;12.52;;;9.70;99.90;;;;;;5157141;27;20057;-48
2022/10/20 09:14:15;;;;;;;14.40;12.90;;;9.80;99.90;;;;;;5143552;27;20099;-55
2022/10/20 09:16:42;;;;;;;17.00;13.43;;;9.90;99.90;;;;;;5157221;27;20073;-55
2022/10/20 09:19:17;;;;;;;13.57;12.38;;;10.00;99.90;;;;;;5138064;27;20082;-55
2022/10/20 09:21:45;;;;;;;13.93;11.95;;;10.00;99.90;;;;;;5156724;27;20086;-50
2022/10/20 09:24:11;;;;;;;14.35;11.75;;;10.10;99.90;;;;;;5137660;27;20050;-57
2022/10/20 09:26:45;;;;;;;16.95;12.43;;;10.10;99.90;;;;;;5157301;27;20137;-59
2022/10/20 09:29:16;;;;;;;15.05;12.32;;;10.10;99.90;;;;;;5156030;27;20049;-56
2022/10/20 09:31:53;;;;;;;13.85;12.48;;;10.20;99.90;;;;;;5156805;27;20041;-55
2022/10/20 09:34:22;;;;;;;15.48;12.45;;;10.30;99.90;;;;;;5120234;27;20110;-51
2022/10/20 09:36:50;;;;;;;14.13;12.25;;;10.40;99.90;;;;;;5156639;27;20531;-51
2022/10/20 09:39:31;;;;;;;15.68;12.45;;;10.50;99.90;;;;;;5155670;27;20624;-41
2022/10/20 09:42:06;;;;;;;13.90;11.13;;;10.60;99.90;;;;;;5156725;27;20046;-52
2022/10/20 09:44:37;;;;;;;12.75;11.43;;;10.70;99.90;;;;;;5143657;27;20042;-52
2022/10/20 09:47:03;;;;;;;13.60;11.45;;;10.80;99.90;;;;;;5156328;27;20042;-47
2022/10/20 09:49:35;;;;;;;12.82;11.38;;;11.00;99.90;;;;;;5156104;27;20415;-48
2022/10/20 09:52:03;;;;;;;13.40;11.82;;;11.10;99.90;;;;;;5156455;27;20082;-50
2022/10/20 09:54:29;;;;;;;13.70;11.23;;;11.10;99.90;;;;;;5154809;27;20053;-44
2022/10/20 09:57:07;;;;;;;12.73;11.15;;;11.20;99.90;;;;;;5155710;27;20050;-50
2022/10/20 09:59:37;;;;;;;13.85;12.00;;;11.20;99.90;;;;;;5156318;27;20073;-52
2022/10/20 10:02:22;;;;;;;11.70;10.60;;;11.30;99.90;;;;;;5144438;27;20054;-47
2022/10/20 10:04:52;;;;;;;11.95;9.75;;;11.30;99.90;;;;;;5140950;27;20045;-50
2022/10/20 10:07:21;;;;;;;12.63;11.32;;;11.40;99.90;;;;;;5142848;27;20046;-45
2022/10/20 10:09:54;;;;;;;13.77;11.95;;;11.40;99.90;;;;;;5154124;27;20137;-47
2022/10/20 10:12:22;;;;;;;;;;;11.50;99.90;;;;;;5144376;27;20049;-47
2022/10/20 10:14:50;;;;;;;12.57;10.95;;;11.50;99.90;;;;;;5154474;27;19922;-48
2022/10/20 10:17:36;;;;;;;12.85;10.77;;;11.60;99.90;;;;;;5153354;27;20073;-50
2022/10/20 10:20:09;;;;;;;11.68;10.57;;;11.70;99.90;;;;;;5136329;27;20058;-44
2022/10/20 10:22:35;;;;;;;12.60;11.07;;;11.80;99.90;;;;;;5156223;27;20047;-45
2022/10/20 10:25:02;;;;;;;13.95;11.88;;;11.90;99.90;;;;;;5136656;27;20065;-45
2022/10/20 10:27:34;;;;;;;13.70;11.75;;;12.10;99.90;;;;;;5145488;27;20059;-53
2022/10/20 10:30:31;;;;;;;12.27;10.88;;;12.20;99.90;;;;;;5152684;27;20502;-51
2022/10/20 10:32:57;;;;;;;12.32;11.10;;;12.30;99.90;;;;;;5153208;27;20606;-46
2022/10/20 10:35:38;;;;;;;12.27;11.15;;;12.30;99.90;;;;;;5152189;27;20050;-57
2022/10/20 10:38:05;;;;;;;13.25;11.80;;;12.40;99.90;;;;;;5130822;27;20555;-60
2022/10/20 10:40:50;;;;;;;13.07;11.40;;;12.40;99.90;;;;;;5159640;27;20419;-41
2022/10/20 10:43:56;;;;;;;13.60;10.77;;;12.50;99.90;;;;;;5149543;27;20072;-43
2022/10/20 10:46:39;;;;;;;13.90;11.30;;;12.50;99.90;;;;;;5054416;28;20135;-53
2022/10/20 10:49:29;;;;;;;13.27;11.57;;;12.50;99.90;;;;;;5037818;28;20090;-56
2022/10/20 10:52:15;;;;;;;16.05;11.98;;;12.60;99.90;;;;;;5054553;28;20052;-53
2022/10/20 10:54:45;;;;;;;17.08;12.43;;;12.70;99.90;;;;;;5053984;28;20474;-41
2022/10/20 10:57:30;;;;;;;13.38;11.98;;;12.80;99.90;;;;;;5054017;28;20063;-46
2022/10/20 10:59:59;;;;;;;13.55;11.70;;;12.80;99.90;;;;;;5053324;28;20368;-50
2022/10/20 11:02:40;;;;;;;12.27;11.18;;;12.90;99.90;;;;;;5054473;28;20258;-52
2022/10/20 11:05:21;;;;;;;12.68;11.43;;;12.90;99.90;;;;;;5053905;28;20048;-59
2022/10/20 11:08:12;;;;;;;16.20;12.65;;;13.00;99.90;;;;;;5035110;28;20078;-51
2022/10/20 11:10:49;;;;;;;13.13;11.73;;;13.00;99.90;;;;;;5024643;28;20056;-58
2022/10/20 11:13:32;;;;;;;13.82;12.27;;;13.10;99.90;;;;;;5033666;28;20060;-49
2022/10/20 11:16:17;;;;;;;16.48;11.93;;;13.20;99.90;;;;;;5033854;28;20064;-59
2022/10/20 11:19:13;;;;;;;16.73;11.50;;;13.20;99.90;;;;;;5034052;28;20133;-48
2022/10/20 11:21:50;;;;;;;14.77;11.65;;;13.20;99.90;;;;;;5033977;28;20138;-53
2022/10/20 11:24:37;;;;;;;14.23;12.80;;;13.10;99.90;;;;;;5087604;28;20118;-43
2022/10/20 11:27:09;;;;;;;12.90;11.52;;;13.10;99.90;;;;;;5094878;28;20047;-53
2022/10/20 11:29:43;;;;;;;14.38;12.32;;;13.00;99.90;;;;;;5094214;28;21026;-48
2022/10/20 11:32:15;;;;;;;15.30;12.27;;;13.00;99.90;;;;;;5094521;28;20099;-51
2022/10/20 11:35:05;;;;;;;15.05;12.25;;;12.90;99.90;;;;;;5093698;28;20062;-48
2022/10/20 11:37:43;;;;;;;13.43;12.10;;;12.90;99.90;;;;;;5093692;28;20613;-45
2022/10/20 11:40:09;;;;;;;14.15;12.73;;;12.90;99.90;;;;;;5094067;28;20055;-52
2022/10/20 11:42:49;;;;;;;14.98;12.25;;;12.80;99.90;;;;;;5094692;28;20054;-55
2022/10/20 11:45:23;;;;;;;14.32;12.93;;;12.90;99.90;;;;;;5093378;28;20044;-54
2022/10/20 11:47:55;;;;;;;14.35;12.25;;;12.90;99.90;;;;;;5118447;27;20058;-53
2022/10/20 11:50:22;;;;;;;14.02;12.50;;;12.80;99.90;;;;;;5155230;27;20048;-49
2022/10/20 11:53:05;;;;;;;14.32;11.40;;;12.90;99.90;;;;;;5145219;27;20536;-54
2022/10/20 11:55:42;;;;;;;14.20;12.73;;;12.80;99.90;;;;;;5156483;27;20239;-47
2022/10/20 11:58:26;;;;;;;14.27;12.82;;;12.80;99.90;;;;;;5157348;27;20257;-47
2022/10/20 12:01:20;;;;;;;13.57;11.98;;;12.80;99.90;;;;;;5147674;27;20058;-50
2022/10/20 12:03:49;;;;;;;15.07;12.90;;;12.80;99.90;;;;;;5143011;27;20050;-49
2022/10/20 12:06:56;;;;;;;17.98;12.85;;;12.70;99.90;;;;;;5144577;27;20074;-55
2022/10/20 12:09:38;;;;;;;13.82;12.38;;;12.60;99.90;;;;;;5139366;27;20648;-50
2022/10/20 12:12:34;;;;;;;15.35;13.50;;;12.50;99.90;;;;;;5139071;27;20053;-51
2022/10/20 12:15:02;;;;;;;15.40;13.88;;;12.50;99.90;;;;;;5158619;27;20050;-55
2022/10/20 12:17:34;;;;;;;19.23;14.75;;;12.30;99.90;;;;;;5158744;27;20050;-53
2022/10/20 12:20:19;;;;;;;15.70;14.05;;;12.30;99.90;;;;;;5138793;27;20665;-49
2022/10/20 12:22:46;;;;;;;19.40;15.02;;;12.30;99.90;;;;;;5157958;27;20085;-45
2022/10/20 12:25:24;;;;;;;14.57;13.18;;;12.20;99.90;;;;;;5158652;27;20049;-52
2022/10/20 12:28:21;;;;;;;15.60;14.10;;;12.10;99.90;;;;;;5158500;27;20089;-52
2022/10/20 12:30:56;;;;;;;18.38;15.20;;;12.10;99.90;;;;;;5138258;27;20135;-54
2022/10/20 12:33:47;;;;;;;16.00;14.07;;;12.00;99.90;;;;;;5157646;27;20172;-47
2022/10/20 12:36:16;;;;;;;17.70;15.82;;;12.00;99.90;;;;;;5157826;27;20042;-55
2022/10/20 12:38:43;;;;;;;18.23;16.52;;;12.00;99.90;;;;;;5157808;27;20499;-54
2022/10/20 12:41:23;;;;;;;17.70;15.90;;;12.00;99.90;;;;;;5139419;27;20054;-60
2022/10/20 12:43:52;;;;;;;19.60;16.45;;;12.00;99.90;;;;;;5125278;27;20580;-46
2022/10/20 12:46:26;;;;;;;17.58;15.63;;;12.00;99.90;;;;;;5157214;27;20038;-48
2022/10/20 12:48:58;;;;;;;18.52;16.52;;;11.90;99.90;;;;;;5142766;27;20042;-42
2022/10/20 12:51:46;;;;;;;20.70;16.58;;;11.90;99.90;;;;;;5157899;27;20117;-48
2022/10/20 12:54:36;;;;;;;18.15;16.27;;;11.90;99.90;;;;;;5118379;27;20500;-52
2022/10/20 12:57:25;;;;;;;18.58;16.67;;;11.90;99.90;;;;;;5155222;27;20038;-49